sensor_id;sensor_type;location;lat;lon;timestamp;P1;durP1;ratioP1;P2;durP2;ratioP2
62523;SDS011;53689;56.878;60.672;2024-02-28T00:01:17;8.93;;;5.25;;
62523;SDS011;53689;56.878;60.672;2024-02-28T00:03:46;11.32;;;5.70;;
62523;SDS011;53689;56.878;60.672;2024-02-28T00:06:15;9.43;;;5.15;;
62523;SDS011;53689;56.878;60.672;2024-02-28T00:11:11;7.80;;;4.78;;
62523;SDS011;53689;56.878;60.672;2024-02-28T00:13:39;8.48;;;4.57;;
62523;SDS011;53689;56.878;60.672;2024-02-28T00:16:07;8.13;;;4.38;;
62523;SDS011;53689;56.878;60.672;2024-02-28T00:18:34;9.77;;;5.78;;
62523;SDS011;53689;56.878;60.672;2024-02-28T00:21:04;7.28;;;4.13;;
62523;SDS011;53689;56.878;60.672;2024-02-28T00:23:32;6.38;;;4.03;;
62523;SDS011;53689;56.878;60.672;2024-02-28T00:26:00;6.93;;;4.13;;
62523;SDS011;53689;56.878;60.672;2024-02-28T00:28:28;7.50;;;4.20;;
62523;SDS011;53689;56.878;60.672;2024-02-28T00:30:56;7.90;;;4.10;;
62523;SDS011;53689;56.878;60.672;2024-02-28T00:33:23;6.75;;;3.88;;
62523;SDS011;53689;56.878;60.672;2024-02-28T00:35:51;6.72;;;4.07;;
62523;SDS011;53689;56.878;60.672;2024-02-28T00:38:22;5.72;;;3.75;;
62523;SDS011;53689;56.878;60.672;2024-02-28T00:40:49;6.55;;;3.95;;
62523;SDS011;53689;56.878;60.672;2024-02-28T00:43:18;6.30;;;3.72;;
62523;SDS011;53689;56.878;60.672;2024-02-28T00:45:46;6.20;;;3.58;;
62523;SDS011;53689;56.878;60.672;2024-02-28T00:48:13;5.65;;;3.83;;
62523;SDS011;53689;56.878;60.672;2024-02-28T00:50:41;6.35;;;3.95;;
62523;SDS011;53689;56.878;60.672;2024-02-28T00:53:10;7.10;;;3.75;;
62523;SDS011;53689;56.878;60.672;2024-02-28T00:55:39;6.03;;;3.75;;
62523;SDS011;53689;56.878;60.672;2024-02-28T00:58:07;7.15;;;3.70;;
62523;SDS011;53689;56.878;60.672;2024-02-28T01:00:35;6.05;;;3.80;;
62523;SDS011;53689;56.878;60.672;2024-02-28T01:03:03;7.43;;;3.78;;
62523;SDS011;53689;56.878;60.672;2024-02-28T01:05:31;4.47;;;3.55;;
62523;SDS011;53689;56.878;60.672;2024-02-28T01:07:59;6.80;;;4.00;;
62523;SDS011;53689;56.878;60.672;2024-02-28T01:10:27;6.32;;;3.72;;
62523;SDS011;53689;56.878;60.672;2024-02-28T01:12:57;5.43;;;4.13;;
62523;SDS011;53689;56.878;60.672;2024-02-28T01:15:25;6.20;;;4.25;;
62523;SDS011;53689;56.878;60.672;2024-02-28T01:17:53;5.72;;;3.90;;
62523;SDS011;53689;56.878;60.672;2024-02-28T01:20:21;5.97;;;3.63;;
62523;SDS011;53689;56.878;60.672;2024-02-28T01:22:48;7.50;;;3.83;;
62523;SDS011;53689;56.878;60.672;2024-02-28T01:25:16;6.93;;;3.75;;
62523;SDS011;53689;56.878;60.672;2024-02-28T01:27:44;8.00;;;4.72;;
62523;SDS011;53689;56.878;60.672;2024-02-28T01:30:14;6.00;;;3.83;;
62523;SDS011;53689;56.878;60.672;2024-02-28T01:32:42;6.88;;;4.22;;
62523;SDS011;53689;56.878;60.672;2024-02-28T01:35:10;7.38;;;3.63;;
62523;SDS011;53689;56.878;60.672;2024-02-28T01:37:38;6.05;;;3.60;;
62523;SDS011;53689;56.878;60.672;2024-02-28T01:40:06;5.57;;;3.20;;
62523;SDS011;53689;56.878;60.672;2024-02-28T01:42:35;5.93;;;3.83;;
62523;SDS011;53689;56.878;60.672;2024-02-28T01:45:03;6.85;;;3.75;;
62523;SDS011;53689;56.878;60.672;2024-02-28T01:47:33;5.80;;;4.25;;
62523;SDS011;53689;56.878;60.672;2024-02-28T01:50:01;4.82;;;3.33;;
62523;SDS011;53689;56.878;60.672;2024-02-28T01:52:28;5.68;;;3.58;;
62523;SDS011;53689;56.878;60.672;2024-02-28T01:54:56;5.68;;;3.72;;
62523;SDS011;53689;56.878;60.672;2024-02-28T01:57:25;6.72;;;3.53;;
62523;SDS011;53689;56.878;60.672;2024-02-28T01:59:53;6.78;;;4.22;;
62523;SDS011;53689;56.878;60.672;2024-02-28T02:02:21;5.07;;;3.13;;
62523;SDS011;53689;56.878;60.672;2024-02-28T02:04:50;6.03;;;3.58;;
62523;SDS011;53689;56.878;60.672;2024-02-28T02:07:18;5.63;;;3.58;;
62523;SDS011;53689;56.878;60.672;2024-02-28T02:09:46;6.47;;;3.92;;
62523;SDS011;53689;56.878;60.672;2024-02-28T02:12:14;5.65;;;3.63;;
62523;SDS011;53689;56.878;60.672;2024-02-28T02:14:42;7.70;;;4.80;;
62523;SDS011;53689;56.878;60.672;2024-02-28T02:17:15;7.22;;;4.05;;
62523;SDS011;53689;56.878;60.672;2024-02-28T02:19:42;8.15;;;4.50;;
62523;SDS011;53689;56.878;60.672;2024-02-28T02:22:13;6.20;;;4.22;;
62523;SDS011;53689;56.878;60.672;2024-02-28T02:24:43;6.53;;;3.80;;
62523;SDS011;53689;56.878;60.672;2024-02-28T02:27:10;7.55;;;4.43;;
62523;SDS011;53689;56.878;60.672;2024-02-28T02:29:38;6.70;;;4.20;;
62523;SDS011;53689;56.878;60.672;2024-02-28T02:32:06;7.60;;;4.72;;
62523;SDS011;53689;56.878;60.672;2024-02-28T02:34:34;8.93;;;4.90;;
62523;SDS011;53689;56.878;60.672;2024-02-28T02:37:02;8.75;;;4.40;;
62523;SDS011;53689;56.878;60.672;2024-02-28T02:39:30;6.63;;;3.95;;
62523;SDS011;53689;56.878;60.672;2024-02-28T02:42:00;9.63;;;4.88;;
62523;SDS011;53689;56.878;60.672;2024-02-28T02:44:28;14.80;;;5.07;;
62523;SDS011;53689;56.878;60.672;2024-02-28T02:46:56;7.78;;;4.53;;
62523;SDS011;53689;56.878;60.672;2024-02-28T02:49:24;9.55;;;4.35;;
62523;SDS011;53689;56.878;60.672;2024-02-28T02:51:52;10.27;;;4.75;;
62523;SDS011;53689;56.878;60.672;2024-02-28T02:54:20;8.10;;;4.28;;
62523;SDS011;53689;56.878;60.672;2024-02-28T02:56:48;8.85;;;5.25;;
62523;SDS011;53689;56.878;60.672;2024-02-28T02:59:17;9.57;;;5.50;;
62523;SDS011;53689;56.878;60.672;2024-02-28T03:01:45;11.48;;;5.75;;
62523;SDS011;53689;56.878;60.672;2024-02-28T03:04:13;8.98;;;5.05;;
62523;SDS011;53689;56.878;60.672;2024-02-28T03:06:41;9.05;;;4.45;;
62523;SDS011;53689;56.878;60.672;2024-02-28T03:09:09;7.78;;;4.53;;
62523;SDS011;53689;56.878;60.672;2024-02-28T03:11:37;9.45;;;4.95;;
62523;SDS011;53689;56.878;60.672;2024-02-28T03:14:04;8.48;;;4.15;;
62523;SDS011;53689;56.878;60.672;2024-02-28T03:16:34;10.07;;;4.97;;
62523;SDS011;53689;56.878;60.672;2024-02-28T03:19:02;9.75;;;4.97;;
62523;SDS011;53689;56.878;60.672;2024-02-28T03:21:30;11.25;;;5.53;;
62523;SDS011;53689;56.878;60.672;2024-02-28T03:23:58;11.32;;;5.55;;
62523;SDS011;53689;56.878;60.672;2024-02-28T03:26:26;10.75;;;5.47;;
62523;SDS011;53689;56.878;60.672;2024-02-28T03:28:53;11.02;;;6.07;;
62523;SDS011;53689;56.878;60.672;2024-02-28T03:31:21;12.20;;;6.47;;
62523;SDS011;53689;56.878;60.672;2024-02-28T03:33:51;12.43;;;6.63;;
62523;SDS011;53689;56.878;60.672;2024-02-28T03:36:18;12.40;;;6.53;;
62523;SDS011;53689;56.878;60.672;2024-02-28T03:38:47;12.50;;;6.55;;
62523;SDS011;53689;56.878;60.672;2024-02-28T03:41:15;10.60;;;6.50;;
62523;SDS011;53689;56.878;60.672;2024-02-28T03:43:42;12.77;;;7.13;;
62523;SDS011;53689;56.878;60.672;2024-02-28T03:46:10;10.40;;;5.93;;
62523;SDS011;53689;56.878;60.672;2024-02-28T03:48:38;13.75;;;7.05;;
62523;SDS011;53689;56.878;60.672;2024-02-28T03:51:08;14.23;;;8.57;;
62523;SDS011;53689;56.878;60.672;2024-02-28T03:56:03;19.30;;;10.05;;
62523;SDS011;53689;56.878;60.672;2024-02-28T03:58:31;16.60;;;8.90;;
62523;SDS011;53689;56.878;60.672;2024-02-28T04:00:59;16.48;;;8.27;;
62523;SDS011;53689;56.878;60.672;2024-02-28T04:03:27;12.18;;;7.35;;
62523;SDS011;53689;56.878;60.672;2024-02-28T04:05:55;14.90;;;7.80;;
62523;SDS011;53689;56.878;60.672;2024-02-28T04:08:24;14.70;;;7.63;;
62523;SDS011;53689;56.878;60.672;2024-02-28T04:10:52;19.60;;;8.77;;
62523;SDS011;53689;56.878;60.672;2024-02-28T04:13:20;12.77;;;6.90;;
62523;SDS011;53689;56.878;60.672;2024-02-28T04:15:48;15.27;;;7.72;;
62523;SDS011;53689;56.878;60.672;2024-02-28T04:18:16;14.80;;;8.00;;
62523;SDS011;53689;56.878;60.672;2024-02-28T04:20:44;17.38;;;9.13;;
62523;SDS011;53689;56.878;60.672;2024-02-28T04:23:12;19.13;;;10.32;;
62523;SDS011;53689;56.878;60.672;2024-02-28T04:25:41;20.15;;;10.20;;
62523;SDS011;53689;56.878;60.672;2024-02-28T04:28:09;16.10;;;8.73;;
62523;SDS011;53689;56.878;60.672;2024-02-28T04:30:37;16.40;;;9.43;;
62523;SDS011;53689;56.878;60.672;2024-02-28T04:33:05;32.03;;;16.50;;
62523;SDS011;53689;56.878;60.672;2024-02-28T04:35:32;34.78;;;17.52;;
62523;SDS011;53689;56.878;60.672;2024-02-28T04:38:01;35.00;;;17.00;;
62523;SDS011;53689;56.878;60.672;2024-02-28T04:40:29;32.28;;;16.20;;
62523;SDS011;53689;56.878;60.672;2024-02-28T04:42:58;25.00;;;13.57;;
62523;SDS011;53689;56.878;60.672;2024-02-28T04:45:26;29.85;;;16.27;;
62523;SDS011;53689;56.878;60.672;2024-02-28T04:47:54;33.08;;;17.52;;
62523;SDS011;53689;56.878;60.672;2024-02-28T04:50:22;28.48;;;16.38;;
62523;SDS011;53689;56.878;60.672;2024-02-28T04:52:50;21.40;;;11.70;;
62523;SDS011;53689;56.878;60.672;2024-02-28T04:55:18;37.40;;;18.85;;
62523;SDS011;53689;56.878;60.672;2024-02-28T04:57:46;34.90;;;19.15;;
62523;SDS011;53689;56.878;60.672;2024-02-28T05:00:16;32.08;;;17.45;;
62523;SDS011;53689;56.878;60.672;2024-02-28T05:02:45;33.60;;;17.83;;
62523;SDS011;53689;56.878;60.672;2024-02-28T05:05:13;30.70;;;16.38;;
62523;SDS011;53689;56.878;60.672;2024-02-28T05:07:41;29.02;;;14.88;;
62523;SDS011;53689;56.878;60.672;2024-02-28T05:10:09;22.55;;;12.95;;
62523;SDS011;53689;56.878;60.672;2024-02-28T05:12:37;22.02;;;12.23;;
62523;SDS011;53689;56.878;60.672;2024-02-28T05:15:06;24.95;;;13.00;;
62523;SDS011;53689;56.878;60.672;2024-02-28T05:17:35;27.10;;;14.80;;
62523;SDS011;53689;56.878;60.672;2024-02-28T05:20:03;26.85;;;13.18;;
62523;SDS011;53689;56.878;60.672;2024-02-28T05:22:32;29.65;;;16.10;;
62523;SDS011;53689;56.878;60.672;2024-02-28T05:25:00;26.15;;;13.73;;
62523;SDS011;53689;56.878;60.672;2024-02-28T05:27:27;31.58;;;16.70;;
62523;SDS011;53689;56.878;60.672;2024-02-28T05:29:56;26.65;;;14.10;;
62523;SDS011;53689;56.878;60.672;2024-02-28T05:32:23;25.33;;;13.68;;
62523;SDS011;53689;56.878;60.672;2024-02-28T05:34:53;26.25;;;14.68;;
62523;SDS011;53689;56.878;60.672;2024-02-28T05:37:21;32.33;;;18.55;;
62523;SDS011;53689;56.878;60.672;2024-02-28T05:39:48;27.27;;;15.38;;
62523;SDS011;53689;56.878;60.672;2024-02-28T05:42:16;27.92;;;15.65;;
62523;SDS011;53689;56.878;60.672;2024-02-28T05:44:44;28.67;;;15.70;;
62523;SDS011;53689;56.878;60.672;2024-02-28T05:47:12;34.75;;;17.77;;
62523;SDS011;53689;56.878;60.672;2024-02-28T05:49:40;24.85;;;14.32;;
62523;SDS011;53689;56.878;60.672;2024-02-28T05:52:09;24.50;;;13.88;;
62523;SDS011;53689;56.878;60.672;2024-02-28T05:54:37;24.85;;;14.20;;
62523;SDS011;53689;56.878;60.672;2024-02-28T05:57:05;26.67;;;15.23;;
62523;SDS011;53689;56.878;60.672;2024-02-28T05:59:33;50.50;;;23.80;;
62523;SDS011;53689;56.878;60.672;2024-02-28T06:02:01;45.67;;;19.88;;
62523;SDS011;53689;56.878;60.672;2024-02-28T06:04:29;34.47;;;16.33;;
62523;SDS011;53689;56.878;60.672;2024-02-28T06:06:57;34.92;;;17.88;;
62523;SDS011;53689;56.878;60.672;2024-02-28T06:09:27;47.17;;;21.77;;
62523;SDS011;53689;56.878;60.672;2024-02-28T06:11:55;42.00;;;21.55;;
62523;SDS011;53689;56.878;60.672;2024-02-28T06:14:26;40.15;;;19.35;;
62523;SDS011;53689;56.878;60.672;2024-02-28T06:16:54;35.67;;;18.13;;
62523;SDS011;53689;56.878;60.672;2024-02-28T06:19:21;29.90;;;16.98;;
62523;SDS011;53689;56.878;60.672;2024-02-28T06:21:50;25.77;;;13.60;;
62523;SDS011;53689;56.878;60.672;2024-02-28T06:24:18;41.65;;;21.08;;
62523;SDS011;53689;56.878;60.672;2024-02-28T06:26:48;33.70;;;17.08;;
62523;SDS011;53689;56.878;60.672;2024-02-28T06:29:16;31.30;;;15.32;;
62523;SDS011;53689;56.878;60.672;2024-02-28T06:31:44;32.80;;;16.10;;
62523;SDS011;53689;56.878;60.672;2024-02-28T06:34:12;38.88;;;19.40;;
62523;SDS011;53689;56.878;60.672;2024-02-28T06:36:41;31.60;;;16.07;;
62523;SDS011;53689;56.878;60.672;2024-02-28T06:39:08;27.00;;;14.15;;
62523;SDS011;53689;56.878;60.672;2024-02-28T06:41:36;37.95;;;19.00;;
62523;SDS011;53689;56.878;60.672;2024-02-28T06:44:06;28.77;;;16.48;;
62523;SDS011;53689;56.878;60.672;2024-02-28T06:46:34;34.47;;;17.23;;
62523;SDS011;53689;56.878;60.672;2024-02-28T06:49:01;24.88;;;14.52;;
62523;SDS011;53689;56.878;60.672;2024-02-28T06:51:30;28.20;;;16.75;;
62523;SDS011;53689;56.878;60.672;2024-02-28T06:53:57;28.95;;;15.18;;
62523;SDS011;53689;56.878;60.672;2024-02-28T06:56:25;33.15;;;17.98;;
62523;SDS011;53689;56.878;60.672;2024-02-28T06:58:53;32.03;;;17.35;;
62523;SDS011;53689;56.878;60.672;2024-02-28T07:01:22;39.22;;;21.73;;
62523;SDS011;53689;56.878;60.672;2024-02-28T07:03:51;41.80;;;24.67;;
62523;SDS011;53689;56.878;60.672;2024-02-28T07:06:19;37.88;;;25.17;;
62523;SDS011;53689;56.878;60.672;2024-02-28T07:08:47;34.67;;;19.65;;
62523;SDS011;53689;56.878;60.672;2024-02-28T07:11:16;38.53;;;23.10;;
62523;SDS011;53689;56.878;60.672;2024-02-28T07:13:44;43.22;;;24.17;;
62523;SDS011;53689;56.878;60.672;2024-02-28T07:16:11;37.22;;;21.90;;
62523;SDS011;53689;56.878;60.672;2024-02-28T07:18:41;31.45;;;16.90;;
62523;SDS011;53689;56.878;60.672;2024-02-28T07:21:09;30.17;;;18.70;;
62523;SDS011;53689;56.878;60.672;2024-02-28T07:23:38;26.63;;;13.85;;
62523;SDS011;53689;56.878;60.672;2024-02-28T07:28:45;24.67;;;14.48;;
62523;SDS011;53689;56.878;60.672;2024-02-28T07:31:14;28.35;;;16.08;;
62523;SDS011;53689;56.878;60.672;2024-02-28T07:33:43;25.23;;;14.50;;
62523;SDS011;53689;56.878;60.672;2024-02-28T07:36:11;35.15;;;17.77;;
62523;SDS011;53689;56.878;60.672;2024-02-28T07:38:41;26.25;;;15.00;;
62523;SDS011;53689;56.878;60.672;2024-02-28T07:41:09;25.23;;;14.93;;
62523;SDS011;53689;56.878;60.672;2024-02-28T07:43:37;33.78;;;21.02;;
62523;SDS011;53689;56.878;60.672;2024-02-28T07:46:06;137.43;;;90.25;;
62523;SDS011;53689;56.878;60.672;2024-02-28T07:48:34;101.35;;;64.75;;
62523;SDS011;53689;56.878;60.672;2024-02-28T07:51:05;49.78;;;28.13;;
62523;SDS011;53689;56.878;60.672;2024-02-28T07:53:34;33.20;;;21.58;;
62523;SDS011;53689;56.878;60.672;2024-02-28T07:56:03;36.50;;;21.33;;
62523;SDS011;53689;56.878;60.672;2024-02-28T07:58:30;35.03;;;21.15;;
62523;SDS011;53689;56.878;60.672;2024-02-28T08:00:58;32.03;;;21.45;;
62523;SDS011;53689;56.878;60.672;2024-02-28T08:03:26;25.15;;;16.10;;
62523;SDS011;53689;56.878;60.672;2024-02-28T08:05:54;24.85;;;13.93;;
62523;SDS011;53689;56.878;60.672;2024-02-28T08:08:23;23.42;;;14.07;;
62523;SDS011;53689;56.878;60.672;2024-02-28T08:10:51;24.17;;;15.05;;
62523;SDS011;53689;56.878;60.672;2024-02-28T08:13:19;23.75;;;15.27;;
62523;SDS011;53689;56.878;60.672;2024-02-28T08:15:47;25.52;;;15.73;;
62523;SDS011;53689;56.878;60.672;2024-02-28T08:18:14;24.35;;;14.05;;
62523;SDS011;53689;56.878;60.672;2024-02-28T08:20:42;29.00;;;15.90;;
62523;SDS011;53689;56.878;60.672;2024-02-28T08:23:10;23.92;;;15.13;;
62523;SDS011;53689;56.878;60.672;2024-02-28T08:25:40;22.25;;;13.75;;
62523;SDS011;53689;56.878;60.672;2024-02-28T08:28:07;26.48;;;16.88;;
62523;SDS011;53689;56.878;60.672;2024-02-28T08:30:36;28.08;;;18.95;;
62523;SDS011;53689;56.878;60.672;2024-02-28T08:33:05;24.55;;;14.55;;
62523;SDS011;53689;56.878;60.672;2024-02-28T08:38:01;21.27;;;12.55;;
62523;SDS011;53689;56.878;60.672;2024-02-28T08:40:29;20.00;;;11.85;;
62523;SDS011;53689;56.878;60.672;2024-02-28T08:42:59;21.83;;;12.18;;
62523;SDS011;53689;56.878;60.672;2024-02-28T08:45:27;18.00;;;10.55;;
62523;SDS011;53689;56.878;60.672;2024-02-28T08:47:55;21.52;;;11.68;;
62523;SDS011;53689;56.878;60.672;2024-02-28T08:50:23;18.77;;;12.15;;
62523;SDS011;53689;56.878;60.672;2024-02-28T08:52:51;19.23;;;10.45;;
62523;SDS011;53689;56.878;60.672;2024-02-28T08:55:19;18.55;;;9.82;;
62523;SDS011;53689;56.878;60.672;2024-02-28T08:57:47;20.92;;;11.48;;
62523;SDS011;53689;56.878;60.672;2024-02-28T09:00:16;17.42;;;10.43;;
62523;SDS011;53689;56.878;60.672;2024-02-28T09:02:45;21.65;;;11.98;;
62523;SDS011;53689;56.878;60.672;2024-02-28T09:05:14;17.87;;;11.53;;
62523;SDS011;53689;56.878;60.672;2024-02-28T09:07:42;18.25;;;12.88;;
62523;SDS011;53689;56.878;60.672;2024-02-28T09:10:10;21.83;;;12.23;;
62523;SDS011;53689;56.878;60.672;2024-02-28T09:12:38;20.17;;;12.10;;
62523;SDS011;53689;56.878;60.672;2024-02-28T09:15:07;21.30;;;11.88;;
62523;SDS011;53689;56.878;60.672;2024-02-28T09:17:36;27.92;;;17.75;;
62523;SDS011;53689;56.878;60.672;2024-02-28T09:20:04;26.77;;;15.57;;
62523;SDS011;53689;56.878;60.672;2024-02-28T09:22:33;25.80;;;14.65;;
62523;SDS011;53689;56.878;60.672;2024-02-28T09:25:01;27.45;;;16.73;;
62523;SDS011;53689;56.878;60.672;2024-02-28T09:27:29;26.90;;;16.30;;
62523;SDS011;53689;56.878;60.672;2024-02-28T09:29:58;25.88;;;16.25;;
62523;SDS011;53689;56.878;60.672;2024-02-28T09:32:25;24.65;;;16.92;;
62523;SDS011;53689;56.878;60.672;2024-02-28T09:34:55;24.55;;;15.60;;
62523;SDS011;53689;56.878;60.672;2024-02-28T09:37:23;22.45;;;15.20;;
62523;SDS011;53689;56.878;60.672;2024-02-28T09:39:51;22.52;;;13.10;;
62523;SDS011;53689;56.878;60.672;2024-02-28T09:42:19;23.75;;;14.23;;
62523;SDS011;53689;56.878;60.672;2024-02-28T09:44:47;24.70;;;15.27;;
62523;SDS011;53689;56.878;60.672;2024-02-28T09:47:16;25.38;;;13.35;;
62523;SDS011;53689;56.878;60.672;2024-02-28T09:49:43;21.10;;;13.25;;
62523;SDS011;53689;56.878;60.672;2024-02-28T09:52:19;28.95;;;14.77;;
62523;SDS011;53689;56.878;60.672;2024-02-28T09:57:14;33.40;;;15.02;;
62523;SDS011;53689;56.878;60.672;2024-02-28T09:59:43;44.15;;;17.92;;
62523;SDS011;53689;56.878;60.672;2024-02-28T10:02:21;24.30;;;12.88;;
62523;SDS011;53689;56.878;60.672;2024-02-28T10:04:51;30.25;;;12.73;;
62523;SDS011;53689;56.878;60.672;2024-02-28T10:07:21;32.45;;;16.92;;
62523;SDS011;53689;56.878;60.672;2024-02-28T10:09:49;34.28;;;14.65;;
62523;SDS011;53689;56.878;60.672;2024-02-28T10:12:17;22.55;;;13.05;;
62523;SDS011;53689;56.878;60.672;2024-02-28T10:14:45;24.92;;;14.10;;
62523;SDS011;53689;56.878;60.672;2024-02-28T10:17:17;39.55;;;20.00;;
62523;SDS011;53689;56.878;60.672;2024-02-28T10:19:45;40.13;;;20.73;;
62523;SDS011;53689;56.878;60.672;2024-02-28T10:22:13;37.75;;;20.75;;
62523;SDS011;53689;56.878;60.672;2024-02-28T10:24:43;32.88;;;18.70;;
62523;SDS011;53689;56.878;60.672;2024-02-28T10:29:42;34.40;;;15.63;;
62523;SDS011;53689;56.878;60.672;2024-02-28T10:32:12;30.73;;;16.42;;
62523;SDS011;53689;56.878;60.672;2024-02-28T10:34:40;31.13;;;16.27;;
62523;SDS011;53689;56.878;60.672;2024-02-28T10:37:08;27.17;;;13.63;;
62523;SDS011;53689;56.878;60.672;2024-02-28T10:39:39;30.10;;;15.02;;
62523;SDS011;53689;56.878;60.672;2024-02-28T10:42:10;36.67;;;17.10;;
62523;SDS011;53689;56.878;60.672;2024-02-28T10:44:41;28.90;;;15.02;;
62523;SDS011;53689;56.878;60.672;2024-02-28T10:47:09;31.48;;;16.42;;
62523;SDS011;53689;56.878;60.672;2024-02-28T10:49:39;30.42;;;16.08;;
62523;SDS011;53689;56.878;60.672;2024-02-28T10:52:10;32.20;;;15.35;;
62523;SDS011;53689;56.878;60.672;2024-02-28T10:54:38;26.10;;;14.43;;
62523;SDS011;53689;56.878;60.672;2024-02-28T10:57:09;32.42;;;18.15;;
62523;SDS011;53689;56.878;60.672;2024-02-28T10:59:42;24.45;;;15.70;;
62523;SDS011;53689;56.878;60.672;2024-02-28T11:02:11;36.45;;;20.17;;
62523;SDS011;53689;56.878;60.672;2024-02-28T11:04:39;33.28;;;20.10;;
62523;SDS011;53689;56.878;60.672;2024-02-28T11:07:07;31.33;;;18.83;;
62523;SDS011;53689;56.878;60.672;2024-02-28T11:09:35;33.70;;;21.15;;
62523;SDS011;53689;56.878;60.672;2024-02-28T11:12:04;34.17;;;20.05;;
62523;SDS011;53689;56.878;60.672;2024-02-28T11:17:04;29.80;;;15.57;;
62523;SDS011;53689;56.878;60.672;2024-02-28T11:19:33;31.77;;;18.20;;
62523;SDS011;53689;56.878;60.672;2024-02-28T11:22:02;31.00;;;17.65;;
62523;SDS011;53689;56.878;60.672;2024-02-28T11:24:33;29.45;;;16.83;;
62523;SDS011;53689;56.878;60.672;2024-02-28T11:27:02;29.10;;;15.95;;
62523;SDS011;53689;56.878;60.672;2024-02-28T11:29:31;36.70;;;21.38;;
62523;SDS011;53689;56.878;60.672;2024-02-28T11:32:00;32.75;;;20.23;;
62523;SDS011;53689;56.878;60.672;2024-02-28T11:34:28;31.33;;;18.15;;
62523;SDS011;53689;56.878;60.672;2024-02-28T11:36:55;35.78;;;19.98;;
62523;SDS011;53689;56.878;60.672;2024-02-28T11:39:24;29.38;;;19.05;;
62523;SDS011;53689;56.878;60.672;2024-02-28T11:41:52;35.13;;;19.98;;
62523;SDS011;53689;56.878;60.672;2024-02-28T11:44:20;41.45;;;22.50;;
62523;SDS011;53689;56.878;60.672;2024-02-28T11:46:49;47.60;;;25.55;;
62523;SDS011;53689;56.878;60.672;2024-02-28T11:49:18;48.97;;;25.60;;
62523;SDS011;53689;56.878;60.672;2024-02-28T11:51:46;38.95;;;21.65;;
62523;SDS011;53689;56.878;60.672;2024-02-28T11:54:15;46.60;;;23.07;;
62523;SDS011;53689;56.878;60.672;2024-02-28T11:56:43;37.08;;;18.52;;
62523;SDS011;53689;56.878;60.672;2024-02-28T11:59:11;33.67;;;16.88;;
62523;SDS011;53689;56.878;60.672;2024-02-28T12:01:40;32.60;;;18.88;;
62523;SDS011;53689;56.878;60.672;2024-02-28T12:04:09;39.03;;;20.90;;
62523;SDS011;53689;56.878;60.672;2024-02-28T12:06:39;38.45;;;19.58;;
62523;SDS011;53689;56.878;60.672;2024-02-28T12:09:08;30.00;;;16.70;;
62523;SDS011;53689;56.878;60.672;2024-02-28T12:11:42;37.10;;;19.65;;
62523;SDS011;53689;56.878;60.672;2024-02-28T12:14:09;31.75;;;17.85;;
62523;SDS011;53689;56.878;60.672;2024-02-28T12:16:39;34.58;;;19.23;;
62523;SDS011;53689;56.878;60.672;2024-02-28T12:19:07;40.85;;;23.85;;
62523;SDS011;53689;56.878;60.672;2024-02-28T12:21:36;42.90;;;24.05;;
62523;SDS011;53689;56.878;60.672;2024-02-28T12:24:06;38.05;;;24.33;;
62523;SDS011;53689;56.878;60.672;2024-02-28T12:26:35;33.58;;;21.58;;
62523;SDS011;53689;56.878;60.672;2024-02-28T12:29:03;38.00;;;22.58;;
62523;SDS011;53689;56.878;60.672;2024-02-28T12:31:31;39.10;;;21.75;;
62523;SDS011;53689;56.878;60.672;2024-02-28T12:33:59;36.88;;;21.60;;
62523;SDS011;53689;56.878;60.672;2024-02-28T12:36:27;37.92;;;24.13;;
62523;SDS011;53689;56.878;60.672;2024-02-28T12:38:55;39.78;;;23.52;;
62523;SDS011;53689;56.878;60.672;2024-02-28T12:41:25;39.25;;;21.73;;
62523;SDS011;53689;56.878;60.672;2024-02-28T12:43:52;37.92;;;23.88;;
62523;SDS011;53689;56.878;60.672;2024-02-28T12:46:20;38.65;;;22.05;;
62523;SDS011;53689;56.878;60.672;2024-02-28T12:48:48;32.15;;;20.77;;
62523;SDS011;53689;56.878;60.672;2024-02-28T12:51:20;36.03;;;21.95;;
62523;SDS011;53689;56.878;60.672;2024-02-28T12:54:04;37.08;;;21.20;;
62523;SDS011;53689;56.878;60.672;2024-02-28T12:56:34;33.70;;;22.13;;
62523;SDS011;53689;56.878;60.672;2024-02-28T13:01:30;29.58;;;19.70;;
62523;SDS011;53689;56.878;60.672;2024-02-28T13:03:58;31.35;;;18.40;;
62523;SDS011;53689;56.878;60.672;2024-02-28T13:06:26;33.55;;;17.95;;
62523;SDS011;53689;56.878;60.672;2024-02-28T13:08:54;29.05;;;17.92;;
62523;SDS011;53689;56.878;60.672;2024-02-28T13:11:22;26.48;;;17.90;;
62523;SDS011;53689;56.878;60.672;2024-02-28T13:13:52;27.10;;;16.80;;
62523;SDS011;53689;56.878;60.672;2024-02-28T13:16:20;28.73;;;18.27;;
62523;SDS011;53689;56.878;60.672;2024-02-28T13:18:48;29.48;;;17.55;;
62523;SDS011;53689;56.878;60.672;2024-02-28T13:21:16;25.67;;;16.33;;
62523;SDS011;53689;56.878;60.672;2024-02-28T13:23:44;28.15;;;17.30;;
62523;SDS011;53689;56.878;60.672;2024-02-28T13:26:12;27.92;;;16.58;;
62523;SDS011;53689;56.878;60.672;2024-02-28T13:28:40;22.60;;;15.02;;
62523;SDS011;53689;56.878;60.672;2024-02-28T13:31:14;24.58;;;15.57;;
62523;SDS011;53689;56.878;60.672;2024-02-28T13:33:42;21.25;;;13.88;;
62523;SDS011;53689;56.878;60.672;2024-02-28T13:36:10;23.48;;;14.63;;
62523;SDS011;53689;56.878;60.672;2024-02-28T13:38:41;18.67;;;12.25;;
62523;SDS011;53689;56.878;60.672;2024-02-28T13:41:08;18.83;;;12.48;;
62523;SDS011;53689;56.878;60.672;2024-02-28T13:43:37;23.15;;;13.00;;
62523;SDS011;53689;56.878;60.672;2024-02-28T13:46:05;20.92;;;12.82;;
62523;SDS011;53689;56.878;60.672;2024-02-28T13:48:34;23.25;;;12.70;;
62523;SDS011;53689;56.878;60.672;2024-02-28T13:51:02;21.77;;;13.98;;
62523;SDS011;53689;56.878;60.672;2024-02-28T13:53:31;21.50;;;12.63;;
62523;SDS011;53689;56.878;60.672;2024-02-28T13:55:59;21.70;;;12.27;;
62523;SDS011;53689;56.878;60.672;2024-02-28T13:58:27;24.40;;;14.10;;
62523;SDS011;53689;56.878;60.672;2024-02-28T14:01:08;19.83;;;12.80;;
62523;SDS011;53689;56.878;60.672;2024-02-28T14:03:38;18.80;;;12.55;;
62523;SDS011;53689;56.878;60.672;2024-02-28T14:06:08;27.15;;;17.02;;
62523;SDS011;53689;56.878;60.672;2024-02-28T14:08:36;23.48;;;15.70;;
62523;SDS011;53689;56.878;60.672;2024-02-28T14:11:07;17.30;;;11.48;;
62523;SDS011;53689;56.878;60.672;2024-02-28T14:13:35;21.08;;;12.00;;
62523;SDS011;53689;56.878;60.672;2024-02-28T14:16:03;20.23;;;12.38;;
62523;SDS011;53689;56.878;60.672;2024-02-28T14:18:31;16.70;;;10.88;;
62523;SDS011;53689;56.878;60.672;2024-02-28T14:21:00;19.50;;;11.15;;
62523;SDS011;53689;56.878;60.672;2024-02-28T14:23:31;18.45;;;10.57;;
62523;SDS011;53689;56.878;60.672;2024-02-28T14:25:58;18.15;;;10.65;;
62523;SDS011;53689;56.878;60.672;2024-02-28T14:28:26;19.42;;;12.20;;
62523;SDS011;53689;56.878;60.672;2024-02-28T14:30:54;19.17;;;11.70;;
62523;SDS011;53689;56.878;60.672;2024-02-28T14:33:22;20.10;;;10.43;;
62523;SDS011;53689;56.878;60.672;2024-02-28T14:35:50;15.73;;;9.10;;
62523;SDS011;53689;56.878;60.672;2024-02-28T14:38:20;14.02;;;8.55;;
62523;SDS011;53689;56.878;60.672;2024-02-28T14:40:48;17.25;;;9.43;;
62523;SDS011;53689;56.878;60.672;2024-02-28T14:43:16;13.80;;;9.35;;